Time;durP1;ratioP1;P1;durP2;ratioP2;P2;SDS_P1;SDS_P2;PMS_P1;PMS_P2;Temp;Humidity;BMP_temperature;BMP_pressure;BME280_temperature;BME280_humidity;BME280_pressure;Samples;Min_cycle;Max_cycle;Signal;HPM_P1;HPM_P2
2022/05/17 00:00:39;;;;;;;13.80;3.75;;;;;;;;;;5010926;28;20025;-78
2022/05/17 00:03:05;;;;;;;15.80;3.80;;;;;;;;;;5009058;28;20034;-77
2022/05/17 00:05:31;;;;;;;7.38;3.40;;;;;;;;;;5007075;28;20033;-77
2022/05/17 00:07:57;;;;;;;11.05;3.22;;;;;;;;;;5039678;28;20029;-77
2022/05/17 00:10:23;;;;;;;9.85;3.65;;;;;;;;;;5007591;28;20061;-76
2022/05/17 00:12:53;;;;;;;16.02;4.05;;;;;;;;;;5012638;28;20029;-77
2022/05/17 00:15:19;;;;;;;20.15;6.75;;;;;;;;;;5003937;28;20108;-77
2022/05/17 00:17:46;;;;;;;13.02;4.28;;;;;;;;;;5013177;28;20053;-77
2022/05/17 00:20:13;;;;;;;16.75;3.88;;;;;;;;;;5006771;28;20042;-77
2022/05/17 00:22:39;;;;;;;11.98;3.30;;;;;;;;;;5008561;28;20018;-77
2022/05/17 00:25:06;;;;;;;13.52;4.35;;;;;;;;;;5004268;28;20028;-77
2022/05/17 00:27:32;;;;;;;10.52;3.85;;;;;;;;;;5007995;28;20065;-78
2022/05/17 00:29:58;;;;;;;10.48;5.03;;;;;;;;;;5009120;28;20084;-78
2022/05/17 00:32:25;;;;;;;11.23;3.40;;;;;;;;;;5006669;28;20030;-77
2022/05/17 00:34:51;;;;;;;11.45;3.95;;;;;;;;;;5008261;28;20036;-78
2022/05/17 00:37:17;;;;;;;14.63;4.93;;;;;;;;;;5038682;28;20087;-75
2022/05/17 00:39:43;;;;;;;13.40;3.58;;;;;;;;;;5009622;28;20396;-77
2022/05/17 00:42:09;;;;;;;13.90;6.18;;;;;;;;;;5004703;28;20153;-77
2022/05/17 00:44:45;;;;;;;18.95;4.85;;;;;;;;;;5007529;28;20033;-77
2022/05/17 00:47:26;;;;;;;14.60;3.78;;;;;;;;;;5004069;28;20464;-77
2022/05/17 00:49:54;;;;;;;15.85;4.43;;;;;;;;;;5006678;28;20081;-78
2022/05/17 00:52:31;;;;;;;12.75;4.03;;;;;;;;;;5011288;28;20038;-77
2022/05/17 00:54:59;;;;;;;16.08;4.13;;;;;;;;;;5009338;28;20447;-78
2022/05/17 00:57:28;;;;;;;14.85;5.68;;;;;;;;;;5004679;28;20049;-77
2022/05/17 00:59:56;;;;;;;17.05;4.75;;;;;;;;;;5006378;28;20510;-77
2022/05/17 01:02:22;;;;;;;15.27;3.55;;;;;;;;;;5006657;28;20464;-77
2022/05/17 01:04:48;;;;;;;16.08;5.13;;;;;;;;;;5007481;28;20251;-77
2022/05/17 01:07:20;;;;;;;14.80;3.95;;;;;;;;;;5005753;28;20560;-78
2022/05/17 01:09:46;;;;;;;16.92;3.67;;;;;;;;;;5006009;28;20117;-77
2022/05/17 01:12:12;;;;;;;14.45;4.03;;;;;;;;;;5008506;28;20034;-78
2022/05/17 01:14:57;;;;;;;13.82;3.88;;;;;;;;;;5006545;28;20616;-77
2022/05/17 01:17:24;;;;;;;11.32;4.75;;;;;;;;;;5010258;28;20038;-78
2022/05/17 01:19:50;;;;;;;12.40;3.70;;;;;;;;;;5009227;28;20033;-77
2022/05/17 01:22:17;;;;;;;18.63;4.28;;;;;;;;;;5039262;28;20029;-78
2022/05/17 01:24:43;;;;;;;13.02;4.25;;;;;;;;;;5011504;28;20034;-77
2022/05/17 01:27:18;;;;;;;11.32;4.03;;;;;;;;;;5012295;28;20113;-77
2022/05/17 01:29:45;;;;;;;17.92;4.13;;;;;;;;;;5005377;28;20490;-77
2022/05/17 01:32:12;;;;;;;15.63;5.05;;;;;;;;;;5002148;28;20060;-77
2022/05/17 01:34:38;;;;;;;14.27;4.25;;;;;;;;;;5011712;28;20392;-78
2022/05/17 01:37:05;;;;;;;18.83;4.40;;;;;;;;;;5007494;28;20029;-77
2022/05/17 01:39:32;;;;;;;14.55;3.95;;;;;;;;;;5011869;28;20053;-78
2022/05/17 01:41:58;;;;;;;13.40;4.05;;;;;;;;;;5005871;28;20045;-77
2022/05/17 01:44:25;;;;;;;11.93;4.25;;;;;;;;;;5010110;28;20049;-77
2022/05/17 01:46:52;;;;;;;12.75;4.95;;;;;;;;;;5008202;28;20041;-77
2022/05/17 01:49:18;;;;;;;13.95;4.38;;;;;;;;;;5009393;28;20026;-77
2022/05/17 01:51:44;;;;;;;19.30;5.70;;;;;;;;;;5007978;28;20122;-77
2022/05/17 01:54:10;;;;;;;15.75;4.10;;;;;;;;;;5006252;28;20042;-77
2022/05/17 01:56:36;;;;;;;12.95;4.45;;;;;;;;;;5009022;28;20400;-77
2022/05/17 01:59:03;;;;;;;13.77;4.47;;;;;;;;;;5011263;28;20064;-78
2022/05/17 02:01:29;;;;;;;13.63;5.10;;;;;;;;;;5008475;28;21135;-77
2022/05/17 02:03:55;;;;;;;15.52;5.43;;;;;;;;;;5011222;28;20531;-77
2022/05/17 02:06:23;;;;;;;14.05;4.97;;;;;;;;;;5010556;28;20038;-77
2022/05/17 02:08:49;;;;;;;8.95;3.80;;;;;;;;;;5003461;28;20080;-76
2022/05/17 02:11:15;;;;;;;18.67;4.75;;;;;;;;;;5008687;28;20073;-75
2022/05/17 02:13:44;;;;;;;20.70;3.72;;;;;;;;;;5013004;28;20099;-77
2022/05/17 02:16:10;;;;;;;20.10;4.30;;;;;;;;;;5011047;28;20365;-76
2022/05/17 02:18:37;;;;;;;14.45;4.43;;;;;;;;;;5009655;28;20450;-77
2022/05/17 02:21:03;;;;;;;17.35;4.88;;;;;;;;;;5008658;28;20500;-78
2022/05/17 02:23:30;;;;;;;10.43;3.35;;;;;;;;;;5037469;28;20370;-78
2022/05/17 02:25:56;;;;;;;14.93;4.00;;;;;;;;;;5002743;28;20029;-75
2022/05/17 02:28:22;;;;;;;17.73;3.92;;;;;;;;;;5034256;28;20476;-75
2022/05/17 02:30:49;;;;;;;11.02;3.45;;;;;;;;;;5011680;28;20058;-77
2022/05/17 02:33:16;;;;;;;13.63;4.28;;;;;;;;;;5007864;28;20026;-76
2022/05/17 02:35:43;;;;;;;17.02;5.75;;;;;;;;;;5007323;28;20120;-75
2022/05/17 02:38:09;;;;;;;15.23;3.83;;;;;;;;;;5004556;28;20030;-76
2022/05/17 02:40:36;;;;;;;14.05;4.05;;;;;;;;;;5040259;28;20116;-75
2022/05/17 02:43:02;;;;;;;9.63;3.50;;;;;;;;;;5007209;28;20034;-75
2022/05/17 02:45:29;;;;;;;12.05;3.65;;;;;;;;;;5007504;28;20424;-75
2022/05/17 02:47:55;;;;;;;14.30;4.25;;;;;;;;;;5009182;28;20030;-75
2022/05/17 02:50:21;;;;;;;14.82;4.40;;;;;;;;;;5006817;28;20472;-75
2022/05/17 02:52:47;;;;;;;11.93;4.43;;;;;;;;;;5010361;28;20053;-75
2022/05/17 02:55:14;;;;;;;16.83;4.70;;;;;;;;;;5011791;28;20034;-75
2022/05/17 02:57:40;;;;;;;16.35;5.13;;;;;;;;;;5040931;28;20030;-75
2022/05/17 03:00:09;;;;;;;13.95;3.88;;;;;;;;;;5004773;28;20041;-75
2022/05/17 03:02:35;;;;;;;10.32;3.42;;;;;;;;;;5006682;28;20037;-75
2022/05/17 03:05:01;;;;;;;14.52;4.05;;;;;;;;;;5006748;28;20525;-75
2022/05/17 03:07:27;;;;;;;15.48;4.00;;;;;;;;;;5006999;28;20104;-75
2022/05/17 03:09:53;;;;;;;11.43;5.13;;;;;;;;;;5009200;28;20440;-76
2022/05/17 03:12:20;;;;;;;13.57;5.13;;;;;;;;;;5011585;28;20034;-75
2022/05/17 03:14:46;;;;;;;13.90;4.53;;;;;;;;;;5002927;28;20126;-75
2022/05/17 03:17:13;;;;;;;15.88;4.65;;;;;;;;;;5008256;28;20484;-75
2022/05/17 03:19:40;;;;;;;11.70;4.45;;;;;;;;;;5007248;28;20104;-75
2022/05/17 03:22:06;;;;;;;15.25;5.78;;;;;;;;;;5004925;28;20097;-75
2022/05/17 03:24:33;;;;;;;13.70;4.00;;;;;;;;;;5009007;28;20022;-76
2022/05/17 03:26:59;;;;;;;12.43;4.18;;;;;;;;;;5041024;28;20022;-75
2022/05/17 03:29:25;;;;;;;12.27;4.65;;;;;;;;;;5004110;28;20060;-75
2022/05/17 03:31:51;;;;;;;12.55;4.50;;;;;;;;;;5008316;28;20483;-75
2022/05/17 03:34:18;;;;;;;16.98;5.35;;;;;;;;;;5008417;28;20085;-75
2022/05/17 03:36:44;;;;;;;12.32;4.13;;;;;;;;;;5007692;28;20100;-76
2022/05/17 03:39:11;;;;;;;12.80;5.20;;;;;;;;;;5006596;28;20189;-76
2022/05/17 03:41:37;;;;;;;13.75;4.72;;;;;;;;;;5006397;28;20064;-75
2022/05/17 03:44:03;;;;;;;11.27;4.45;;;;;;;;;;5010223;28;20025;-75
2022/05/17 03:46:29;;;;;;;12.85;4.80;;;;;;;;;;5004751;28;20392;-75
2022/05/17 03:48:56;;;;;;;16.63;6.40;;;;;;;;;;5008246;28;20026;-75
2022/05/17 03:51:22;;;;;;;15.02;4.68;;;;;;;;;;5005405;28;20022;-75
2022/05/17 03:53:48;;;;;;;17.08;4.35;;;;;;;;;;5003451;28;20025;-75
2022/05/17 03:56:16;;;;;;;14.13;5.60;;;;;;;;;;5005897;28;20034;-75
2022/05/17 03:58:42;;;;;;;17.33;4.95;;;;;;;;;;5007806;28;20022;-75
2022/05/17 04:01:08;;;;;;;16.42;4.25;;;;;;;;;;5007113;28;20432;-75
2022/05/17 04:03:35;;;;;;;10.60;4.00;;;;;;;;;;5007722;28;20033;-75
2022/05/17 04:06:01;;;;;;;14.82;3.97;;;;;;;;;;5005990;28;20026;-74
2022/05/17 04:08:27;;;;;;;18.67;4.63;;;;;;;;;;5005130;28;20026;-75
2022/05/17 04:10:53;;;;;;;15.00;4.55;;;;;;;;;;5010016;28;20029;-76
2022/05/17 04:13:19;;;;;;;12.75;4.95;;;;;;;;;;5007056;28;20030;-75
2022/05/17 04:15:45;;;;;;;14.25;4.30;;;;;;;;;;5004309;28;20057;-75
2022/05/17 04:18:11;;;;;;;13.20;4.63;;;;;;;;;;5012367;28;20484;-75
2022/05/17 04:20:38;;;;;;;13.50;4.00;;;;;;;;;;5037745;28;20483;-75
2022/05/17 04:23:04;;;;;;;17.65;6.00;;;;;;;;;;5006096;28;20034;-75
2022/05/17 04:25:30;;;;;;;16.38;4.95;;;;;;;;;;5008904;28;20504;-75
2022/05/17 04:27:56;;;;;;;11.68;4.03;;;;;;;;;;5002785;28;20034;-75
2022/05/17 04:30:23;;;;;;;10.93;3.67;;;;;;;;;;5036657;28;20030;-75
2022/05/17 04:32:49;;;;;;;14.18;4.55;;;;;;;;;;5004955;28;20037;-75
2022/05/17 04:35:16;;;;;;;14.57;3.97;;;;;;;;;;5011585;28;20032;-76
2022/05/17 04:37:43;;;;;;;10.50;3.97;;;;;;;;;;5002516;28;20025;-75
2022/05/17 04:40:10;;;;;;;8.85;3.22;;;;;;;;;;5008046;28;20022;-75
2022/05/17 04:42:36;;;;;;;8.85;3.58;;;;;;;;;;5002461;28;20241;-78
2022/05/17 04:45:04;;;;;;;9.77;3.65;;;;;;;;;;5004969;28;20030;-75
2022/05/17 04:47:31;;;;;;;7.75;2.97;;;;;;;;;;5008079;28;20026;-75
2022/05/17 04:49:57;;;;;;;6.35;2.90;;;;;;;;;;5005540;28;20101;-75
2022/05/17 04:52:23;;;;;;;9.43;3.45;;;;;;;;;;5009055;28;20030;-75
2022/05/17 04:54:50;;;;;;;8.52;2.60;;;;;;;;;;5004212;28;20041;-75
2022/05/17 04:57:16;;;;;;;6.15;2.35;;;;;;;;;;5007680;28;20060;-75
2022/05/17 04:59:42;;;;;;;4.50;2.83;;;;;;;;;;5011640;28;20142;-75
2022/05/17 05:02:11;;;;;;;3.45;2.03;;;;;;;;;;5003232;28;20383;-75
2022/05/17 05:04:38;;;;;;;4.18;2.10;;;;;;;;;;5007256;28;20080;-75
2022/05/17 05:07:05;;;;;;;5.18;2.08;;;;;;;;;;5006091;28;20029;-75
2022/05/17 05:09:32;;;;;;;2.70;1.75;;;;;;;;;;5009382;28;20446;-75
2022/05/17 05:11:58;;;;;;;3.33;1.98;;;;;;;;;;5016558;28;20057;-75
2022/05/17 05:14:24;;;;;;;4.68;1.80;;;;;;;;;;5008817;28;20083;-75
2022/05/17 05:16:50;;;;;;;3.67;1.80;;;;;;;;;;5016152;28;20106;-77
2022/05/17 05:19:16;;;;;;;3.80;1.77;;;;;;;;;;5009454;28;20088;-77
2022/05/17 05:21:43;;;;;;;1.55;1.45;;;;;;;;;;5014340;28;20025;-77
2022/05/17 05:24:10;;;;;;;2.70;1.70;;;;;;;;;;5008987;28;20080;-77
2022/05/17 05:26:37;;;;;;;3.00;1.90;;;;;;;;;;5011780;28;20041;-77
2022/05/17 05:29:03;;;;;;;4.18;1.90;;;;;;;;;;5012703;28;20033;-76
2022/05/17 05:31:29;;;;;;;3.95;1.88;;;;;;;;;;5009061;28;20088;-77
2022/05/17 05:33:56;;;;;;;3.65;1.95;;;;;;;;;;5013300;28;20034;-77
2022/05/17 05:36:22;;;;;;;2.22;2.03;;;;;;;;;;5009143;28;20025;-78
2022/05/17 05:38:48;;;;;;;3.55;2.10;;;;;;;;;;5011396;28;20287;-77
2022/05/17 05:41:15;;;;;;;3.50;1.65;;;;;;;;;;5008899;28;20514;-77
2022/05/17 05:43:41;;;;;;;1.90;1.48;;;;;;;;;;5005857;28;20411;-78
2022/05/17 05:46:07;;;;;;;4.25;1.90;;;;;;;;;;5005134;28;20022;-75
2022/05/17 05:48:34;;;;;;;2.65;1.60;;;;;;;;;;5010788;28;20069;-77
2022/05/17 05:51:00;;;;;;;3.30;2.08;;;;;;;;;;5007449;28;20033;-77
2022/05/17 05:53:26;;;;;;;4.35;2.30;;;;;;;;;;5007222;28;20125;-77
2022/05/17 05:55:57;;;;;;;5.07;2.30;;;;;;;;;;5007259;28;20029;-76
2022/05/17 05:58:24;;;;;;;5.43;2.45;;;;;;;;;;5010071;28;20075;-77
2022/05/17 06:00:50;;;;;;;3.25;1.90;;;;;;;;;;5011086;28;20594;-77
2022/05/17 06:03:16;;;;;;;4.28;2.13;;;;;;;;;;5010219;28;20395;-77
2022/05/17 06:05:42;;;;;;;6.40;2.10;;;;;;;;;;5009123;28;20041;-77
2022/05/17 06:08:13;;;;;;;5.85;1.90;;;;;;;;;;5008493;28;20034;-77
2022/05/17 06:10:41;;;;;;;5.38;2.13;;;;;;;;;;5010459;28;20038;-77
2022/05/17 06:13:07;;;;;;;4.18;2.10;;;;;;;;;;5008036;28;20022;-77
2022/05/17 06:15:33;;;;;;;5.15;2.30;;;;;;;;;;5004016;28;20038;-77
2022/05/17 06:18:03;;;;;;;4.63;2.22;;;;;;;;;;5008122;28;20049;-77
2022/05/17 06:20:29;;;;;;;5.25;2.47;;;;;;;;;;5004194;28;20029;-77
2022/05/17 06:22:55;;;;;;;3.60;2.35;;;;;;;;;;5006751;28;20040;-77
2022/05/17 06:25:21;;;;;;;5.10;2.00;;;;;;;;;;5000764;28;20030;-76
2022/05/17 06:27:47;;;;;;;5.53;2.50;;;;;;;;;;5007911;28;20100;-77
2022/05/17 06:30:14;;;;;;;4.53;2.10;;;;;;;;;;5001721;28;20060;-72
2022/05/17 06:32:40;;;;;;;8.85;3.08;;;;;;;;;;4999145;28;20030;-73
2022/05/17 06:35:07;;;;;;;6.05;2.45;;;;;;;;;;5002606;28;20053;-72
2022/05/17 06:37:33;;;;;;;6.47;2.38;;;;;;;;;;5004131;28;20065;-72
2022/05/17 06:39:59;;;;;;;9.35;2.60;;;;;;;;;;5000471;28;20018;-72
2022/05/17 06:42:27;;;;;;;5.38;2.30;;;;;;;;;;5035189;28;20396;-72
2022/05/17 06:44:54;;;;;;;5.85;2.10;;;;;;;;;;5005694;28;20033;-72
2022/05/17 06:47:20;;;;;;;5.95;2.40;;;;;;;;;;5003913;28;20030;-72
2022/05/17 06:49:46;;;;;;;5.00;2.58;;;;;;;;;;5004073;28;20113;-75
2022/05/17 06:52:12;;;;;;;5.60;2.08;;;;;;;;;;5000881;28;20026;-74
2022/05/17 06:54:40;;;;;;;5.70;2.40;;;;;;;;;;5003598;28;20068;-74
2022/05/17 06:57:07;;;;;;;7.25;2.50;;;;;;;;;;5004429;28;20014;-74
2022/05/17 06:59:35;;;;;;;5.30;2.60;;;;;;;;;;5006941;28;20077;-75
2022/05/17 07:02:01;;;;;;;7.95;3.55;;;;;;;;;;5003864;28;20327;-75
2022/05/17 07:04:28;;;;;;;5.35;2.53;;;;;;;;;;5004010;28;20030;-74
2022/05/17 07:06:55;;;;;;;7.03;2.30;;;;;;;;;;5031556;28;20497;-75
2022/05/17 07:09:22;;;;;;;8.45;2.67;;;;;;;;;;5002661;28;20108;-74
2022/05/17 07:14:37;;;;;;;10.68;2.58;;;;;;;;;;5004100;28;20149;-76
2022/05/17 07:17:07;;;;;;;9.10;2.47;;;;;;;;;;5005346;28;20037;-75
2022/05/17 07:19:34;;;;;;;8.27;2.63;;;;;;;;;;5007114;28;20550;-75
2022/05/17 07:22:01;;;;;;;11.95;3.00;;;;;;;;;;5037226;28;20030;-73
2022/05/17 07:24:27;;;;;;;9.10;2.78;;;;;;;;;;5004435;28;20038;-74
2022/05/17 07:26:54;;;;;;;8.48;3.55;;;;;;;;;;5007583;28;20101;-74
2022/05/17 07:29:20;;;;;;;20.73;4.20;;;;;;;;;;5006827;28;20030;-75
2022/05/17 07:31:46;;;;;;;17.42;3.83;;;;;;;;;;5005244;28;20037;-75
2022/05/17 07:34:12;;;;;;;11.18;4.30;;;;;;;;;;5006835;28;20029;-76
2022/05/17 07:36:39;;;;;;;11.35;3.22;;;;;;;;;;5002461;28;20450;-73
2022/05/17 07:39:06;;;;;;;7.72;2.70;;;;;;;;;;5006562;28;20035;-74
2022/05/17 07:41:32;;;;;;;12.38;3.72;;;;;;;;;;5039568;28;20100;-74
2022/05/17 07:43:58;;;;;;;16.35;3.67;;;;;;;;;;5006322;28;20310;-73
2022/05/17 07:46:25;;;;;;;15.20;4.32;;;;;;;;;;5038879;28;20060;-73
2022/05/17 07:48:51;;;;;;;26.13;4.30;;;;;;;;;;5009948;28;20033;-73
2022/05/17 07:51:17;;;;;;;15.95;4.10;;;;;;;;;;5011808;28;20083;-75
2022/05/17 07:53:43;;;;;;;11.90;3.45;;;;;;;;;;5010912;28;20492;-74
2022/05/17 07:56:09;;;;;;;15.85;4.57;;;;;;;;;;5034830;28;20030;-74
2022/05/17 07:58:35;;;;;;;11.10;4.20;;;;;;;;;;5009784;28;20074;-74
2022/05/17 08:01:02;;;;;;;12.25;4.68;;;;;;;;;;5002793;28;20041;-74
2022/05/17 08:03:29;;;;;;;17.42;4.03;;;;;;;;;;5008226;28;20113;-74
2022/05/17 08:05:55;;;;;;;10.55;3.72;;;;;;;;;;5009623;28;20057;-74
2022/05/17 08:08:21;;;;;;;15.35;4.28;;;;;;;;;;5008702;28;20105;-74
2022/05/17 08:10:47;;;;;;;16.20;4.13;;;;;;;;;;5005880;28;20583;-75
2022/05/17 08:13:17;;;;;;;11.70;4.05;;;;;;;;;;5002498;28;20033;-76
2022/05/17 08:15:43;;;;;;;13.85;4.03;;;;;;;;;;5001293;28;20054;-74
2022/05/17 08:18:10;;;;;;;13.98;4.57;;;;;;;;;;5010262;28;20125;-75
2022/05/17 08:20:36;;;;;;;20.73;5.78;;;;;;;;;;5007688;28;20029;-73
2022/05/17 08:23:04;;;;;;;18.25;4.63;;;;;;;;;;5007677;28;20097;-75
2022/05/17 08:28:15;;;;;;;19.05;5.07;;;;;;;;;;5009237;28;20037;-75
2022/05/17 08:30:41;;;;;;;20.15;4.80;;;;;;;;;;5041236;28;20091;-74
2022/05/17 08:33:19;;;;;;;15.18;3.65;;;;;;;;;;5006755;28;20018;-72
2022/05/17 08:35:45;;;;;;;19.70;4.82;;;;;;;;;;5009161;28;20030;-73
2022/05/17 08:38:13;;;;;;;11.48;4.63;;;;;;;;;;5009791;28;20025;-74
2022/05/17 08:40:48;;;;;;;19.00;4.70;;;;;;;;;;5009413;28;20431;-73
2022/05/17 08:43:23;;;;;;;15.45;4.90;;;;;;;;;;5006123;28;20037;-74
2022/05/17 08:45:55;;;;;;;15.35;4.22;;;;;;;;;;5041677;28;20034;-74
2022/05/17 08:48:22;;;;;;;20.02;4.47;;;;;;;;;;5006992;28;20080;-74
2022/05/17 08:50:48;;;;;;;18.10;5.18;;;;;;;;;;5010996;28;20022;-73
2022/05/17 08:53:17;;;;;;;24.20;6.30;;;;;;;;;;5009280;28;20057;-73
2022/05/17 08:55:44;;;;;;;11.88;4.32;;;;;;;;;;5008959;28;20101;-73
2022/05/17 08:58:20;;;;;;;24.70;4.85;;;;;;;;;;5007322;28;20024;-73
2022/05/17 09:00:48;;;;;;;13.43;4.55;;;;;;;;;;5009945;28;20030;-73
2022/05/17 09:03:14;;;;;;;16.92;3.47;;;;;;;;;;5011281;28;20068;-73
2022/05/17 09:05:55;;;;;;;13.85;4.38;;;;;;;;;;5007101;28;20484;-73
2022/05/17 09:08:24;;;;;;;13.00;5.00;;;;;;;;;;4998710;28;20033;-73
2022/05/17 09:10:54;;;;;;;15.10;4.60;;;;;;;;;;4997866;28;20026;-73
2022/05/17 09:13:20;;;;;;;14.13;5.35;;;;;;;;;;4999857;28;20034;-73
2022/05/17 09:15:46;;;;;;;12.35;4.18;;;;;;;;;;4999698;28;20556;-73
2022/05/17 09:18:17;;;;;;;15.70;5.97;;;;;;;;;;5004866;28;20034;-75
2022/05/17 09:20:44;;;;;;;19.38;4.90;;;;;;;;;;5034457;28;20499;-73
2022/05/17 09:23:10;;;;;;;17.27;4.50;;;;;;;;;;5010923;28;20064;-73
2022/05/17 09:25:55;;;;;;;15.90;5.38;;;;;;;;;;5010360;28;20026;-73
2022/05/17 09:28:22;;;;;;;11.35;4.10;;;;;;;;;;5009939;28;20121;-76
2022/05/17 09:30:48;;;;;;;13.68;3.60;;;;;;;;;;5011433;28;20018;-76
2022/05/17 09:33:21;;;;;;;15.68;4.05;;;;;;;;;;5007721;28;20049;-73
2022/05/17 09:35:59;;;;;;;11.35;4.03;;;;;;;;;;5012365;28;20040;-75
2022/05/17 09:38:29;;;;;;;17.20;6.00;;;;;;;;;;5010761;28;20026;-73
2022/05/17 09:40:57;;;;;;;10.70;3.58;;;;;;;;;;5008494;28;20057;-76
2022/05/17 09:43:47;;;;;;;12.82;3.70;;;;;;;;;;5009310;28;20026;-75
2022/05/17 09:46:14;;;;;;;13.20;4.28;;;;;;;;;;5042041;28;20056;-75
2022/05/17 09:54:31;;;;;;;18.02;4.70;;;;;;;;;;5007363;28;20466;-75
2022/05/17 09:57:23;;;;;;;14.00;3.90;;;;;;;;;;5007250;28;20138;-74
2022/05/17 09:59:50;;;;;;;16.35;4.43;;;;;;;;;;5005054;28;20042;-75
2022/05/17 10:02:34;;;;;;;12.63;4.32;;;;;;;;;;5010413;28;20044;-75
2022/05/17 10:05:18;;;;;;;15.15;4.80;;;;;;;;;;5011358;28;20435;-74
2022/05/17 10:08:05;;;;;;;18.35;4.07;;;;;;;;;;5006609;28;20100;-74
2022/05/17 10:10:35;;;;;;;15.25;4.45;;;;;;;;;;5013694;28;20091;-74
2022/05/17 10:13:06;;;;;;;14.90;5.80;;;;;;;;;;5008233;28;20029;-75
2022/05/17 10:15:35;;;;;;;12.80;4.93;;;;;;;;;;5012031;28;20073;-74
2022/05/17 10:18:03;;;;;;;16.42;4.70;;;;;;;;;;5003257;28;20064;-75
2022/05/17 10:20:36;;;;;;;16.20;5.82;;;;;;;;;;5006097;28;20030;-75
2022/05/17 10:23:15;;;;;;;15.18;4.13;;;;;;;;;;5010180;28;20391;-72
2022/05/17 10:25:41;;;;;;;18.08;3.92;;;;;;;;;;5004703;28;20030;-74
2022/05/17 10:28:30;;;;;;;18.38;4.82;;;;;;;;;;5010315;28;20108;-74
2022/05/17 10:30:59;;;;;;;11.95;4.20;;;;;;;;;;5009797;28;20389;-74
2022/05/17 10:33:31;;;;;;;10.70;4.20;;;;;;;;;;5009532;28;20045;-75
2022/05/17 10:36:01;;;;;;;11.35;4.22;;;;;;;;;;5008157;28;20029;-74
2022/05/17 10:38:31;;;;;;;17.65;5.15;;;;;;;;;;5010550;28;20439;-75
2022/05/17 10:40:57;;;;;;;15.93;4.50;;;;;;;;;;5011023;28;20468;-75
2022/05/17 10:43:26;;;;;;;21.73;4.28;;;;;;;;;;5008755;28;20041;-74
2022/05/17 10:46:02;;;;;;;16.00;4.22;;;;;;;;;;5014518;28;20212;-74
2022/05/17 10:48:28;;;;;;;15.70;6.32;;;;;;;;;;5008810;28;20041;-75
2022/05/17 10:51:03;;;;;;;11.88;3.92;;;;;;;;;;5008802;28;20100;-74
2022/05/17 10:53:36;;;;;;;12.15;3.95;;;;;;;;;;5012436;28;20482;-75
2022/05/17 10:56:12;;;;;;;13.70;4.45;;;;;;;;;;5006175;28;20040;-74
2022/05/17 10:58:49;;;;;;;21.85;5.88;;;;;;;;;;5014712;28;20045;-74
2022/05/17 11:01:21;;;;;;;8.65;3.35;;;;;;;;;;5009255;28;20137;-74
2022/05/17 11:04:10;;;;;;;23.45;6.35;;;;;;;;;;5005978;28;20033;-74
2022/05/17 11:06:36;;;;;;;13.27;3.22;;;;;;;;;;5010196;28;20357;-74
2022/05/17 11:09:26;;;;;;;14.23;3.85;;;;;;;;;;5008180;28;20025;-74
2022/05/17 11:11:52;;;;;;;16.98;3.42;;;;;;;;;;5014979;28;20025;-75
2022/05/17 11:14:29;;;;;;;8.68;4.43;;;;;;;;;;5008843;28;20062;-75
2022/05/17 11:17:01;;;;;;;17.50;4.03;;;;;;;;;;5005552;28;20042;-75
2022/05/17 11:19:37;;;;;;;18.15;4.05;;;;;;;;;;5005057;28;20032;-75
2022/05/17 11:22:16;;;;;;;16.95;4.35;;;;;;;;;;5008533;28;20109;-75
2022/05/17 11:24:42;;;;;;;19.20;4.68;;;;;;;;;;5036513;28;20426;-75
2022/05/17 11:27:11;;;;;;;14.40;4.38;;;;;;;;;;5005231;28;20484;-75
2022/05/17 11:29:56;;;;;;;13.57;4.35;;;;;;;;;;5005842;28;20030;-74
2022/05/17 11:32:29;;;;;;;14.68;4.28;;;;;;;;;;5006152;28;20053;-74
2022/05/17 11:34:56;;;;;;;14.30;4.82;;;;;;;;;;5004026;28;20033;-75
2022/05/17 11:37:45;;;;;;;16.27;3.72;;;;;;;;;;5006813;28;20042;-74
2022/05/17 11:40:11;;;;;;;17.77;3.88;;;;;;;;;;5008025;28;20064;-74
2022/05/17 11:43:40;;;;;;;11.63;3.95;;;;;;;;;;5007093;28;20026;-74
2022/05/17 11:45:44;;;;;;;17.08;4.95;;;;;;;;;;5004341;28;20041;-75
2022/05/17 11:48:18;;;;;;;13.88;4.32;;;;;;;;;;5004548;28;20041;-74
2022/05/17 11:51:04;;;;;;;14.50;4.38;;;;;;;;;;4999077;28;20048;-74
2022/05/17 11:53:34;;;;;;;11.43;3.70;;;;;;;;;;5006658;28;20058;-75
2022/05/17 11:56:18;;;;;;;18.55;5.35;;;;;;;;;;5006165;28;20029;-74
2022/05/17 11:58:49;;;;;;;10.95;3.50;;;;;;;;;;5007032;28;20030;-74
2022/05/17 12:01:35;;;;;;;13.60;4.00;;;;;;;;;;5037905;28;20135;-75
2022/05/17 12:04:02;;;;;;;;;;;;;;;;;;4997924;28;20158;-75
2022/05/17 12:06:30;;;;;;;14.85;4.25;;;;;;;;;;5004166;28;19910;-75
2022/05/17 12:08:56;;;;;;;10.93;3.50;;;;;;;;;;4999975;28;20105;-75
2022/05/17 12:11:42;;;;;;;13.85;3.83;;;;;;;;;;5001041;28;20047;-75
2022/05/17 12:14:18;;;;;;;10.55;3.85;;;;;;;;;;5008705;28;20030;-76
2022/05/17 12:16:49;;;;;;;13.27;4.75;;;;;;;;;;5005704;28;20308;-75
2022/05/17 12:19:21;;;;;;;13.20;4.32;;;;;;;;;;5004493;28;20113;-75
2022/05/17 12:21:56;;;;;;;16.80;4.38;;;;;;;;;;5009360;28;20018;-75
2022/05/17 12:24:41;;;;;;;15.48;3.97;;;;;;;;;;5007441;28;20097;-74
2022/05/17 12:27:25;;;;;;;12.27;4.43;;;;;;;;;;5001393;28;20034;-75
2022/05/17 12:32:45;;;;;;;10.68;3.92;;;;;;;;;;5004032;28;20104;-75
2022/05/17 12:35:11;;;;;;;8.55;2.95;;;;;;;;;;5004679;28;20042;-75
2022/05/17 12:37:42;;;;;;;8.13;3.47;;;;;;;;;;5006748;28;20083;-75
2022/05/17 12:43:02;;;;;;;7.68;2.85;;;;;;;;;;4998473;28;20063;-74
2022/05/17 12:45:30;;;;;;;11.55;3.25;;;;;;;;;;4999216;28;20029;-75
2022/05/17 12:47:57;;;;;;;11.68;3.97;;;;;;;;;;4998175;28;20030;-75
2022/05/17 12:50:48;;;;;;;9.30;2.70;;;;;;;;;;5004647;28;20037;-74
2022/05/17 12:53:26;;;;;;;6.10;2.55;;;;;;;;;;5007359;28;20453;-74
2022/05/17 12:56:12;;;;;;;9.70;3.30;;;;;;;;;;5007326;28;20034;-75
2022/05/17 12:58:52;;;;;;;11.20;3.67;;;;;;;;;;4997986;28;20018;-74
2022/05/17 13:01:22;;;;;;;9.57;3.95;;;;;;;;;;5002813;28;20033;-74
2022/05/17 13:03:49;;;;;;;11.13;3.30;;;;;;;;;;5005174;28;20033;-75
2022/05/17 13:06:15;;;;;;;11.57;3.40;;;;;;;;;;5003355;28;20034;-75
2022/05/17 13:08:41;;;;;;;9.18;2.78;;;;;;;;;;5002342;28;20108;-74
2022/05/17 13:11:12;;;;;;;12.10;2.88;;;;;;;;;;5009776;28;20097;-74
2022/05/17 13:13:41;;;;;;;7.35;3.42;;;;;;;;;;5009338;28;20456;-74
2022/05/17 13:16:22;;;;;;;10.50;3.60;;;;;;;;;;5006580;28;20034;-74
2022/05/17 13:18:52;;;;;;;7.30;3.42;;;;;;;;;;5008965;28;20053;-74
2022/05/17 13:21:24;;;;;;;7.28;2.97;;;;;;;;;;5010802;28;20069;-74
2022/05/17 13:23:51;;;;;;;12.43;2.90;;;;;;;;;;5007886;28;20463;-74
2022/05/17 13:26:28;;;;;;;8.45;2.60;;;;;;;;;;5011412;28;20534;-74
2022/05/17 13:28:55;;;;;;;11.60;2.88;;;;;;;;;;5002033;28;20085;-74
2022/05/17 13:31:26;;;;;;;8.27;2.88;;;;;;;;;;5007079;28;20026;-73
2022/05/17 13:33:58;;;;;;;11.75;3.53;;;;;;;;;;5012407;28;20032;-74
2022/05/17 13:36:33;;;;;;;10.25;3.22;;;;;;;;;;5009116;28;20034;-75
2022/05/17 13:38:59;;;;;;;11.52;3.00;;;;;;;;;;5009392;28;20021;-74
2022/05/17 13:41:27;;;;;;;7.63;3.22;;;;;;;;;;5010281;28;20042;-74
2022/05/17 13:43:55;;;;;;;11.00;3.78;;;;;;;;;;5013395;28;20022;-74
2022/05/17 13:46:26;;;;;;;12.55;4.38;;;;;;;;;;5010450;28;20034;-74
2022/05/17 13:48:58;;;;;;;15.10;4.05;;;;;;;;;;5012299;28;20263;-75
2022/05/17 13:51:25;;;;;;;11.40;3.35;;;;;;;;;;5015196;28;20404;-74
2022/05/17 13:53:55;;;;;;;17.30;3.60;;;;;;;;;;5011869;28;20080;-74
2022/05/17 13:56:22;;;;;;;7.32;3.40;;;;;;;;;;5011919;28;20494;-74
2022/05/17 13:58:48;;;;;;;12.70;3.70;;;;;;;;;;5009039;28;20033;-74
2022/05/17 14:01:32;;;;;;;8.07;3.25;;;;;;;;;;5011150;28;20025;-74
2022/05/17 14:04:06;;;;;;;16.00;4.13;;;;;;;;;;5011131;28;20286;-75
2022/05/17 14:06:54;;;;;;;13.05;4.55;;;;;;;;;;5007198;28;20098;-75
2022/05/17 14:12:17;;;;;;;12.05;5.32;;;;;;;;;;5010240;28;20111;-75
2022/05/17 14:14:43;;;;;;;12.73;5.35;;;;;;;;;;5008712;28;20084;-74
2022/05/17 14:17:16;;;;;;;10.45;4.00;;;;;;;;;;5004427;28;20045;-76
2022/05/17 14:19:43;;;;;;;12.18;3.83;;;;;;;;;;5004587;28;20527;-75
2022/05/17 14:22:11;;;;;;;9.45;3.25;;;;;;;;;;5005284;28;20423;-74
2022/05/17 14:24:37;;;;;;;14.55;5.47;;;;;;;;;;5007147;28;20058;-75
2022/05/17 14:27:04;;;;;;;9.45;3.40;;;;;;;;;;5011892;28;20030;-74
2022/05/17 14:29:34;;;;;;;13.13;3.38;;;;;;;;;;5037203;28;20033;-73
2022/05/17 14:32:02;;;;;;;6.72;2.97;;;;;;;;;;5005920;28;20077;-74
2022/05/17 14:34:28;;;;;;;12.30;3.25;;;;;;;;;;5003507;28;20061;-74
2022/05/17 14:36:54;;;;;;;10.73;3.65;;;;;;;;;;5008132;28;20049;-75
2022/05/17 14:39:21;;;;;;;14.05;3.58;;;;;;;;;;5007547;28;20133;-75
2022/05/17 14:41:49;;;;;;;9.52;3.80;;;;;;;;;;5011438;28;20028;-75
2022/05/17 14:44:15;;;;;;;9.40;3.45;;;;;;;;;;5007584;28;20030;-76
2022/05/17 14:46:41;;;;;;;6.00;2.83;;;;;;;;;;5044622;28;20026;-75
2022/05/17 14:49:11;;;;;;;7.70;3.78;;;;;;;;;;5040061;28;20029;-75
2022/05/17 14:51:37;;;;;;;7.32;3.35;;;;;;;;;;5014228;28;20024;-75
2022/05/17 14:54:03;;;;;;;12.25;3.83;;;;;;;;;;5011320;28;20030;-74
2022/05/17 14:56:29;;;;;;;9.88;3.50;;;;;;;;;;5010422;28;20101;-74
2022/05/17 14:58:55;;;;;;;9.52;3.00;;;;;;;;;;5011120;28;20026;-74
2022/05/17 15:01:22;;;;;;;10.05;3.38;;;;;;;;;;5011660;28;20072;-75
2022/05/17 15:03:50;;;;;;;9.00;3.42;;;;;;;;;;5001795;28;20057;-75